sensor_id;sensor_type;location;lat;lon;timestamp;P1;durP1;ratioP1;P2;durP2;ratioP2
9005;SDS011;62284;50.702;7.140;2022-09-27T00:01:44;3.42;;;2.63;;
9005;SDS011;62284;50.702;7.140;2022-09-27T00:04:12;4.80;;;2.92;;
9005;SDS011;62284;50.702;7.140;2022-09-27T00:06:39;5.55;;;3.00;;
9005;SDS011;62284;50.702;7.140;2022-09-27T00:09:06;4.15;;;2.88;;
9005;SDS011;62284;50.702;7.140;2022-09-27T00:11:34;4.72;;;2.95;;
9005;SDS011;62284;50.702;7.140;2022-09-27T00:14:04;3.88;;;2.70;;
9005;SDS011;62284;50.702;7.140;2022-09-27T00:16:33;2.38;;;2.17;;
9005;SDS011;62284;50.702;7.140;2022-09-27T00:19:02;2.80;;;2.20;;
9005;SDS011;62284;50.702;7.140;2022-09-27T00:21:31;3.28;;;2.13;;
9005;SDS011;62284;50.702;7.140;2022-09-27T00:23:59;5.47;;;2.55;;
9005;SDS011;62284;50.702;7.140;2022-09-27T00:26:27;2.38;;;1.50;;
9005;SDS011;62284;50.702;7.140;2022-09-27T00:28:55;2.35;;;2.00;;
9005;SDS011;62284;50.702;7.140;2022-09-27T00:31:24;1.80;;;1.40;;
9005;SDS011;62284;50.702;7.140;2022-09-27T00:33:53;2.13;;;1.40;;
9005;SDS011;62284;50.702;7.140;2022-09-27T00:36:22;1.58;;;1.48;;
9005;SDS011;62284;50.702;7.140;2022-09-27T00:38:50;3.65;;;1.95;;
9005;SDS011;62284;50.702;7.140;2022-09-27T00:41:18;1.95;;;1.40;;
9005;SDS011;62284;50.702;7.140;2022-09-27T00:43:48;1.88;;;1.75;;
9005;SDS011;62284;50.702;7.140;2022-09-27T00:46:21;1.42;;;1.33;;
9005;SDS011;62284;50.702;7.140;2022-09-27T00:48:58;2.00;;;1.80;;
9005;SDS011;62284;50.702;7.140;2022-09-27T00:51:29;2.78;;;1.90;;
9005;SDS011;62284;50.702;7.140;2022-09-27T00:53:59;2.88;;;1.77;;
9005;SDS011;62284;50.702;7.140;2022-09-27T00:56:28;2.60;;;1.88;;
9005;SDS011;62284;50.702;7.140;2022-09-27T00:58:58;2.67;;;1.60;;
9005;SDS011;62284;50.702;7.140;2022-09-27T01:01:29;3.85;;;2.42;;
9005;SDS011;62284;50.702;7.140;2022-09-27T01:03:58;2.35;;;1.80;;
9005;SDS011;62284;50.702;7.140;2022-09-27T01:06:28;2.88;;;2.30;;
9005;SDS011;62284;50.702;7.140;2022-09-27T01:08:55;2.67;;;2.03;;
9005;SDS011;62284;50.702;7.140;2022-09-27T01:11:30;2.15;;;1.95;;
9005;SDS011;62284;50.702;7.140;2022-09-27T01:14:19;3.60;;;1.92;;
9005;SDS011;62284;50.702;7.140;2022-09-27T01:17:05;2.55;;;1.98;;
9005;SDS011;62284;50.702;7.140;2022-09-27T01:19:44;1.80;;;1.63;;
9005;SDS011;62284;50.702;7.140;2022-09-27T01:22:24;3.00;;;1.77;;
9005;SDS011;62284;50.702;7.140;2022-09-27T01:24:58;1.55;;;1.35;;
9005;SDS011;62284;50.702;7.140;2022-09-27T01:30:40;2.90;;;1.27;;
9005;SDS011;62284;50.702;7.140;2022-09-27T01:33:13;2.35;;;1.30;;
9005;SDS011;62284;50.702;7.140;2022-09-27T01:35:59;3.55;;;1.48;;
9005;SDS011;62284;50.702;7.140;2022-09-27T01:38:46;2.95;;;1.70;;
9005;SDS011;62284;50.702;7.140;2022-09-27T01:41:25;2.03;;;1.33;;
9005;SDS011;62284;50.702;7.140;2022-09-27T01:43:58;2.45;;;1.20;;
9005;SDS011;62284;50.702;7.140;2022-09-27T01:46:32;1.88;;;1.77;;
9005;SDS011;62284;50.702;7.140;2022-09-27T01:49:05;1.88;;;1.40;;
9005;SDS011;62284;50.702;7.140;2022-09-27T01:51:37;1.58;;;1.48;;
9005;SDS011;62284;50.702;7.140;2022-09-27T01:54:08;2.30;;;1.15;;
9005;SDS011;62284;50.702;7.140;2022-09-27T01:56:38;2.45;;;1.58;;
9005;SDS011;62284;50.702;7.140;2022-09-27T01:59:09;2.90;;;1.75;;
9005;SDS011;62284;50.702;7.140;2022-09-27T02:01:41;2.22;;;1.27;;
9005;SDS011;62284;50.702;7.140;2022-09-27T02:04:14;2.63;;;1.83;;
9005;SDS011;62284;50.702;7.140;2022-09-27T02:06:46;1.38;;;1.20;;
9005;SDS011;62284;50.702;7.140;2022-09-27T02:09:19;1.92;;;1.70;;
9005;SDS011;62284;50.702;7.140;2022-09-27T02:11:51;2.85;;;1.35;;
9005;SDS011;62284;50.702;7.140;2022-09-27T02:14:24;1.35;;;1.25;;
9005;SDS011;62284;50.702;7.140;2022-09-27T02:16:58;1.17;;;1.05;;
9005;SDS011;62284;50.702;7.140;2022-09-27T02:19:33;1.52;;;1.10;;
9005;SDS011;62284;50.702;7.140;2022-09-27T02:22:10;3.63;;;1.65;;
9005;SDS011;62284;50.702;7.140;2022-09-27T02:24:42;1.88;;;1.25;;
9005;SDS011;62284;50.702;7.140;2022-09-27T02:27:15;2.65;;;1.40;;
9005;SDS011;62284;50.702;7.140;2022-09-27T02:29:46;1.35;;;1.25;;
9005;SDS011;62284;50.702;7.140;2022-09-27T02:32:20;2.00;;;1.23;;
9005;SDS011;62284;50.702;7.140;2022-09-27T02:34:47;2.38;;;1.65;;
9005;SDS011;62284;50.702;7.140;2022-09-27T02:37:16;1.30;;;1.20;;
9005;SDS011;62284;50.702;7.140;2022-09-27T02:39:43;1.52;;;1.15;;
9005;SDS011;62284;50.702;7.140;2022-09-27T02:42:10;1.42;;;1.30;;
9005;SDS011;62284;50.702;7.140;2022-09-27T02:44:38;1.77;;;1.25;;
9005;SDS011;62284;50.702;7.140;2022-09-27T02:47:07;2.78;;;1.75;;
9005;SDS011;62284;50.702;7.140;2022-09-27T02:52:46;1.38;;;1.23;;
9005;SDS011;62284;50.702;7.140;2022-09-27T02:55:22;1.83;;;1.50;;
9005;SDS011;62284;50.702;7.140;2022-09-27T02:57:58;2.20;;;1.48;;
9005;SDS011;62284;50.702;7.140;2022-09-27T03:00:36;1.77;;;1.40;;
9005;SDS011;62284;50.702;7.140;2022-09-27T03:03:12;1.35;;;1.25;;
9005;SDS011;62284;50.702;7.140;2022-09-27T03:05:44;2.10;;;1.60;;
9005;SDS011;62284;50.702;7.140;2022-09-27T03:08:14;1.08;;;0.77;;
9005;SDS011;62284;50.702;7.140;2022-09-27T03:10:41;2.13;;;1.92;;
9005;SDS011;62284;50.702;7.140;2022-09-27T03:13:08;1.38;;;1.27;;
9005;SDS011;62284;50.702;7.140;2022-09-27T03:15:35;1.50;;;1.40;;
9005;SDS011;62284;50.702;7.140;2022-09-27T03:18:02;2.33;;;1.52;;
9005;SDS011;62284;50.702;7.140;2022-09-27T03:20:29;1.13;;;1.02;;
9005;SDS011;62284;50.702;7.140;2022-09-27T03:22:58;1.55;;;1.05;;
9005;SDS011;62284;50.702;7.140;2022-09-27T03:25:25;1.67;;;1.55;;
9005;SDS011;62284;50.702;7.140;2022-09-27T03:27:52;1.95;;;1.67;;
9005;SDS011;62284;50.702;7.140;2022-09-27T03:30:19;1.38;;;1.00;;
9005;SDS011;62284;50.702;7.140;2022-09-27T03:32:47;1.38;;;1.15;;
9005;SDS011;62284;50.702;7.140;2022-09-27T03:35:14;1.60;;;1.00;;
9005;SDS011;62284;50.702;7.140;2022-09-27T03:37:41;2.40;;;1.10;;
9005;SDS011;62284;50.702;7.140;2022-09-27T03:40:10;1.55;;;0.95;;
9005;SDS011;62284;50.702;7.140;2022-09-27T03:42:37;1.15;;;1.05;;
9005;SDS011;62284;50.702;7.140;2022-09-27T03:45:05;1.23;;;1.13;;
9005;SDS011;62284;50.702;7.140;2022-09-27T03:47:33;0.93;;;0.85;;
9005;SDS011;62284;50.702;7.140;2022-09-27T03:50:00;1.38;;;1.27;;
9005;SDS011;62284;50.702;7.140;2022-09-27T03:52:27;1.20;;;0.77;;
9005;SDS011;62284;50.702;7.140;2022-09-27T03:54:54;1.05;;;0.93;;
9005;SDS011;62284;50.702;7.140;2022-09-27T03:57:23;2.13;;;0.90;;
9005;SDS011;62284;50.702;7.140;2022-09-27T03:59:50;1.35;;;1.17;;
9005;SDS011;62284;50.702;7.140;2022-09-27T04:02:17;1.63;;;1.40;;
9005;SDS011;62284;50.702;7.140;2022-09-27T04:04:43;1.05;;;1.05;;
9005;SDS011;62284;50.702;7.140;2022-09-27T04:07:10;5.57;;;1.02;;
9005;SDS011;62284;50.702;7.140;2022-09-27T04:09:37;1.10;;;1.02;;
9005;SDS011;62284;50.702;7.140;2022-09-27T04:12:06;1.27;;;0.93;;
9005;SDS011;62284;50.702;7.140;2022-09-27T04:14:34;1.23;;;1.13;;
9005;SDS011;62284;50.702;7.140;2022-09-27T04:17:01;1.05;;;0.95;;
9005;SDS011;62284;50.702;7.140;2022-09-27T04:19:28;1.67;;;1.27;;
9005;SDS011;62284;50.702;7.140;2022-09-27T04:21:55;1.95;;;1.35;;
9005;SDS011;62284;50.702;7.140;2022-09-27T04:24:22;1.35;;;1.25;;
9005;SDS011;62284;50.702;7.140;2022-09-27T04:26:49;1.42;;;1.08;;
9005;SDS011;62284;50.702;7.140;2022-09-27T04:29:16;1.73;;;1.30;;
9005;SDS011;62284;50.702;7.140;2022-09-27T04:31:44;2.30;;;1.30;;
9005;SDS011;62284;50.702;7.140;2022-09-27T04:34:11;1.17;;;0.98;;
9005;SDS011;62284;50.702;7.140;2022-09-27T04:36:38;0.65;;;0.65;;
9005;SDS011;62284;50.702;7.140;2022-09-27T04:39:05;1.45;;;1.35;;
9005;SDS011;62284;50.702;7.140;2022-09-27T04:41:33;3.30;;;1.50;;
9005;SDS011;62284;50.702;7.140;2022-09-27T04:44:00;1.33;;;0.80;;
9005;SDS011;62284;50.702;7.140;2022-09-27T04:46:29;1.42;;;0.88;;
9005;SDS011;62284;50.702;7.140;2022-09-27T04:48:57;1.67;;;1.15;;
9005;SDS011;62284;50.702;7.140;2022-09-27T04:51:24;1.63;;;0.98;;
9005;SDS011;62284;50.702;7.140;2022-09-27T04:53:52;2.22;;;1.60;;
9005;SDS011;62284;50.702;7.140;2022-09-27T04:56:21;1.25;;;0.82;;
9005;SDS011;62284;50.702;7.140;2022-09-27T04:58:47;1.50;;;1.35;;
9005;SDS011;62284;50.702;7.140;2022-09-27T05:01:14;1.80;;;1.25;;
9005;SDS011;62284;50.702;7.140;2022-09-27T05:03:41;1.95;;;1.42;;
9005;SDS011;62284;50.702;7.140;2022-09-27T05:06:10;1.30;;;1.10;;
9005;SDS011;62284;50.702;7.140;2022-09-27T05:08:37;1.63;;;1.33;;
9005;SDS011;62284;50.702;7.140;2022-09-27T05:11:04;1.58;;;1.48;;
9005;SDS011;62284;50.702;7.140;2022-09-27T05:13:31;2.13;;;1.50;;
9005;SDS011;62284;50.702;7.140;2022-09-27T05:16:00;2.20;;;1.27;;
9005;SDS011;62284;50.702;7.140;2022-09-27T05:18:29;2.25;;;1.20;;
9005;SDS011;62284;50.702;7.140;2022-09-27T05:20:55;1.52;;;1.42;;
9005;SDS011;62284;50.702;7.140;2022-09-27T05:23:24;1.95;;;1.20;;
9005;SDS011;62284;50.702;7.140;2022-09-27T05:25:51;1.40;;;1.30;;
9005;SDS011;62284;50.702;7.140;2022-09-27T05:28:21;2.05;;;1.40;;
9005;SDS011;62284;50.702;7.140;2022-09-27T05:30:49;1.63;;;1.50;;
9005;SDS011;62284;50.702;7.140;2022-09-27T05:33:16;2.20;;;1.27;;
9005;SDS011;62284;50.702;7.140;2022-09-27T05:35:43;1.98;;;1.75;;
9005;SDS011;62284;50.702;7.140;2022-09-27T05:38:17;1.95;;;1.50;;
9005;SDS011;62284;50.702;7.140;2022-09-27T05:40:45;2.05;;;1.60;;
9005;SDS011;62284;50.702;7.140;2022-09-27T05:43:14;1.42;;;1.20;;
9005;SDS011;62284;50.702;7.140;2022-09-27T05:45:41;1.45;;;1.35;;
9005;SDS011;62284;50.702;7.140;2022-09-27T05:48:09;2.65;;;1.35;;
9005;SDS011;62284;50.702;7.140;2022-09-27T05:50:38;2.40;;;1.48;;
9005;SDS011;62284;50.702;7.140;2022-09-27T05:53:05;2.15;;;1.00;;
9005;SDS011;62284;50.702;7.140;2022-09-27T05:55:32;2.00;;;1.52;;
9005;SDS011;62284;50.702;7.140;2022-09-27T05:58:01;2.17;;;1.33;;
9005;SDS011;62284;50.702;7.140;2022-09-27T06:00:29;1.73;;;1.52;;
9005;SDS011;62284;50.702;7.140;2022-09-27T06:02:57;2.17;;;1.40;;
9005;SDS011;62284;50.702;7.140;2022-09-27T06:05:26;1.88;;;1.60;;
9005;SDS011;62284;50.702;7.140;2022-09-27T06:07:57;1.70;;;1.60;;
9005;SDS011;62284;50.702;7.140;2022-09-27T06:10:26;2.03;;;1.80;;
9005;SDS011;62284;50.702;7.140;2022-09-27T06:12:57;2.05;;;1.45;;
9005;SDS011;62284;50.702;7.140;2022-09-27T06:15:26;1.35;;;1.08;;
9005;SDS011;62284;50.702;7.140;2022-09-27T06:17:54;1.38;;;1.27;;
9005;SDS011;62284;50.702;7.140;2022-09-27T06:20:21;2.80;;;1.88;;
9005;SDS011;62284;50.702;7.140;2022-09-27T06:22:47;2.08;;;1.58;;
9005;SDS011;62284;50.702;7.140;2022-09-27T06:25:15;1.80;;;1.70;;
9005;SDS011;62284;50.702;7.140;2022-09-27T06:27:42;1.55;;;1.42;;
9005;SDS011;62284;50.702;7.140;2022-09-27T06:30:10;1.67;;;1.52;;
9005;SDS011;62284;50.702;7.140;2022-09-27T06:32:39;3.33;;;1.80;;
9005;SDS011;62284;50.702;7.140;2022-09-27T06:35:06;1.30;;;1.30;;
9005;SDS011;62284;50.702;7.140;2022-09-27T06:37:33;2.10;;;1.83;;
9005;SDS011;62284;50.702;7.140;2022-09-27T06:40:00;3.13;;;2.28;;
9005;SDS011;62284;50.702;7.140;2022-09-27T06:42:28;1.50;;;1.35;;
9005;SDS011;62284;50.702;7.140;2022-09-27T06:44:55;1.88;;;1.40;;
9005;SDS011;62284;50.702;7.140;2022-09-27T06:47:22;1.67;;;1.48;;
9005;SDS011;62284;50.702;7.140;2022-09-27T06:49:50;1.50;;;1.40;;
9005;SDS011;62284;50.702;7.140;2022-09-27T06:52:17;2.38;;;1.50;;
9005;SDS011;62284;50.702;7.140;2022-09-27T06:54:44;2.47;;;1.90;;
9005;SDS011;62284;50.702;7.140;2022-09-27T06:57:11;1.90;;;1.48;;
9005;SDS011;62284;50.702;7.140;2022-09-27T06:59:59;2.03;;;1.50;;
9005;SDS011;62284;50.702;7.140;2022-09-27T07:02:44;2.58;;;2.03;;
9005;SDS011;62284;50.702;7.140;2022-09-27T07:05:13;2.70;;;1.83;;
9005;SDS011;62284;50.702;7.140;2022-09-27T07:07:40;2.60;;;1.75;;
9005;SDS011;62284;50.702;7.140;2022-09-27T07:10:08;3.30;;;1.42;;
9005;SDS011;62284;50.702;7.140;2022-09-27T07:12:35;2.13;;;1.48;;
9005;SDS011;62284;50.702;7.140;2022-09-27T07:15:02;1.45;;;1.33;;
9005;SDS011;62284;50.702;7.140;2022-09-27T07:17:31;1.55;;;1.20;;
9005;SDS011;62284;50.702;7.140;2022-09-27T07:20:00;1.77;;;1.48;;
9005;SDS011;62284;50.702;7.140;2022-09-27T07:22:28;2.50;;;1.40;;
9005;SDS011;62284;50.702;7.140;2022-09-27T07:24:56;3.97;;;1.58;;
9005;SDS011;62284;50.702;7.140;2022-09-27T07:27:23;1.65;;;1.27;;
9005;SDS011;62284;50.702;7.140;2022-09-27T07:29:50;1.55;;;1.45;;
9005;SDS011;62284;50.702;7.140;2022-09-27T07:32:18;1.58;;;1.13;;
9005;SDS011;62284;50.702;7.140;2022-09-27T07:34:45;1.27;;;0.93;;
9005;SDS011;62284;50.702;7.140;2022-09-27T07:37:12;2.45;;;1.30;;
9005;SDS011;62284;50.702;7.140;2022-09-27T07:39:41;1.30;;;1.20;;
9005;SDS011;62284;50.702;7.140;2022-09-27T07:42:08;1.77;;;0.90;;
9005;SDS011;62284;50.702;7.140;2022-09-27T07:44:34;1.38;;;1.25;;
9005;SDS011;62284;50.702;7.140;2022-09-27T07:47:01;1.27;;;0.93;;
9005;SDS011;62284;50.702;7.140;2022-09-27T07:49:32;1.27;;;1.27;;
9005;SDS011;62284;50.702;7.140;2022-09-27T07:51:59;1.88;;;1.20;;
9005;SDS011;62284;50.702;7.140;2022-09-27T07:54:26;1.00;;;0.90;;
9005;SDS011;62284;50.702;7.140;2022-09-27T07:56:55;1.10;;;0.80;;
9005;SDS011;62284;50.702;7.140;2022-09-27T07:59:22;1.45;;;1.08;;
9005;SDS011;62284;50.702;7.140;2022-09-27T08:01:49;1.75;;;1.05;;
9005;SDS011;62284;50.702;7.140;2022-09-27T08:04:16;1.13;;;0.77;;
9005;SDS011;62284;50.702;7.140;2022-09-27T08:06:43;1.95;;;1.30;;
9005;SDS011;62284;50.702;7.140;2022-09-27T08:09:10;1.73;;;1.58;;
9005;SDS011;62284;50.702;7.140;2022-09-27T08:11:37;1.45;;;1.25;;
9005;SDS011;62284;50.702;7.140;2022-09-27T08:14:05;1.27;;;0.90;;
9005;SDS011;62284;50.702;7.140;2022-09-27T08:16:32;0.90;;;0.82;;
9005;SDS011;62284;50.702;7.140;2022-09-27T08:18:59;2.17;;;1.17;;
9005;SDS011;62284;50.702;7.140;2022-09-27T08:21:26;3.08;;;1.17;;
9005;SDS011;62284;50.702;7.140;2022-09-27T08:23:54;1.67;;;0.88;;
9005;SDS011;62284;50.702;7.140;2022-09-27T08:26:23;1.50;;;0.70;;
9005;SDS011;62284;50.702;7.140;2022-09-27T08:28:50;1.00;;;0.73;;
9005;SDS011;62284;50.702;7.140;2022-09-27T08:31:18;1.60;;;0.88;;
9005;SDS011;62284;50.702;7.140;2022-09-27T08:33:47;0.80;;;0.80;;
9005;SDS011;62284;50.702;7.140;2022-09-27T08:36:15;0.98;;;0.95;;
9005;SDS011;62284;50.702;7.140;2022-09-27T08:38:42;1.23;;;1.00;;
9005;SDS011;62284;50.702;7.140;2022-09-27T08:41:11;2.75;;;1.00;;
9005;SDS011;62284;50.702;7.140;2022-09-27T08:43:50;1.40;;;1.25;;
9005;SDS011;62284;50.702;7.140;2022-09-27T08:46:31;1.25;;;0.80;;
9005;SDS011;62284;50.702;7.140;2022-09-27T08:49:09;0.80;;;0.80;;
9005;SDS011;62284;50.702;7.140;2022-09-27T08:51:42;0.93;;;0.93;;
9005;SDS011;62284;50.702;7.140;2022-09-27T08:54:12;1.17;;;1.02;;
9005;SDS011;62284;50.702;7.140;2022-09-27T08:56:44;0.77;;;0.77;;
9005;SDS011;62284;50.702;7.140;2022-09-27T08:59:13;1.23;;;1.13;;
9005;SDS011;62284;50.702;7.140;2022-09-27T09:01:47;0.90;;;0.80;;
9005;SDS011;62284;50.702;7.140;2022-09-27T09:04:16;1.02;;;0.77;;
9005;SDS011;62284;50.702;7.140;2022-09-27T09:06:53;1.35;;;0.68;;
9005;SDS011;62284;50.702;7.140;2022-09-27T09:09:29;1.40;;;0.90;;
9005;SDS011;62284;50.702;7.140;2022-09-27T09:12:07;0.77;;;0.77;;
9005;SDS011;62284;50.702;7.140;2022-09-27T09:15:04;0.60;;;0.60;;
9005;SDS011;62284;50.702;7.140;2022-09-27T09:17:54;1.80;;;0.85;;
9005;SDS011;62284;50.702;7.140;2022-09-27T09:20:36;0.95;;;0.85;;
9005;SDS011;62284;50.702;7.140;2022-09-27T09:23:18;0.60;;;0.60;;
9005;SDS011;62284;50.702;7.140;2022-09-27T09:25:57;1.33;;;0.98;;
9005;SDS011;62284;50.702;7.140;2022-09-27T09:28:31;0.90;;;0.90;;
9005;SDS011;62284;50.702;7.140;2022-09-27T09:31:08;0.93;;;0.93;;
9005;SDS011;62284;50.702;7.140;2022-09-27T09:33:43;0.63;;;0.60;;
9005;SDS011;62284;50.702;7.140;2022-09-27T09:36:19;0.80;;;0.77;;
9005;SDS011;62284;50.702;7.140;2022-09-27T09:38:51;1.63;;;0.80;;
9005;SDS011;62284;50.702;7.140;2022-09-27T09:41:21;0.68;;;0.68;;
9005;SDS011;62284;50.702;7.140;2022-09-27T09:43:54;0.82;;;0.60;;
9005;SDS011;62284;50.702;7.140;2022-09-27T09:46:25;0.60;;;0.60;;
9005;SDS011;62284;50.702;7.140;2022-09-27T09:49:00;0.85;;;0.63;;
9005;SDS011;62284;50.702;7.140;2022-09-27T09:51:32;1.08;;;0.82;;
9005;SDS011;62284;50.702;7.140;2022-09-27T09:54:18;1.83;;;0.80;;
9005;SDS011;62284;50.702;7.140;2022-09-27T09:56:55;1.33;;;0.98;;
9005;SDS011;62284;50.702;7.140;2022-09-27T09:59:28;1.27;;;0.90;;
9005;SDS011;62284;50.702;7.140;2022-09-27T10:02:06;0.85;;;0.85;;
9005;SDS011;62284;50.702;7.140;2022-09-27T10:04:49;1.48;;;1.30;;
9005;SDS011;62284;50.702;7.140;2022-09-27T10:07:18;0.95;;;0.95;;
9005;SDS011;62284;50.702;7.140;2022-09-27T10:09:48;2.03;;;1.42;;
9005;SDS011;62284;50.702;7.140;2022-09-27T10:12:16;0.88;;;0.88;;
9005;SDS011;62284;50.702;7.140;2022-09-27T10:14:46;1.10;;;1.00;;
9005;SDS011;62284;50.702;7.140;2022-09-27T10:17:15;2.35;;;0.90;;
9005;SDS011;62284;50.702;7.140;2022-09-27T10:19:45;0.60;;;0.60;;
9005;SDS011;62284;50.702;7.140;2022-09-27T10:22:17;1.25;;;0.90;;
9005;SDS011;62284;50.702;7.140;2022-09-27T10:24:52;0.90;;;0.90;;
9005;SDS011;62284;50.702;7.140;2022-09-27T10:27:23;0.75;;;0.75;;
9005;SDS011;62284;50.702;7.140;2022-09-27T10:29:55;1.13;;;1.02;;
9005;SDS011;62284;50.702;7.140;2022-09-27T10:32:23;0.82;;;0.73;;
9005;SDS011;62284;50.702;7.140;2022-09-27T10:34:55;2.03;;;1.10;;
9005;SDS011;62284;50.702;7.140;2022-09-27T10:37:44;0.52;;;0.45;;
9005;SDS011;62284;50.702;7.140;2022-09-27T10:40:15;1.98;;;1.17;;
9005;SDS011;62284;50.702;7.140;2022-09-27T10:42:52;2.47;;;0.80;;
9005;SDS011;62284;50.702;7.140;2022-09-27T10:45:21;1.27;;;1.08;;
9005;SDS011;62284;50.702;7.140;2022-09-27T10:47:55;1.08;;;1.00;;
9005;SDS011;62284;50.702;7.140;2022-09-27T10:50:24;3.22;;;2.08;;
9005;SDS011;62284;50.702;7.140;2022-09-27T10:53:06;2.45;;;2.25;;
9005;SDS011;62284;50.702;7.140;2022-09-27T10:55:39;2.35;;;2.10;;
9005;SDS011;62284;50.702;7.140;2022-09-27T10:58:13;1.52;;;1.42;;
9005;SDS011;62284;50.702;7.140;2022-09-27T11:00:43;1.50;;;1.15;;
9005;SDS011;62284;50.702;7.140;2022-09-27T11:03:22;1.73;;;1.35;;
9005;SDS011;62284;50.702;7.140;2022-09-27T11:05:53;1.08;;;0.82;;
9005;SDS011;62284;50.702;7.140;2022-09-27T11:08:27;1.40;;;1.02;;
9005;SDS011;62284;50.702;7.140;2022-09-27T11:11:00;1.33;;;1.13;;
9005;SDS011;62284;50.702;7.140;2022-09-27T11:13:42;1.80;;;0.80;;
9005;SDS011;62284;50.702;7.140;2022-09-27T11:16:27;1.70;;;1.17;;
9005;SDS011;62284;50.702;7.140;2022-09-27T11:19:17;1.52;;;1.20;;
9005;SDS011;62284;50.702;7.140;2022-09-27T11:21:57;1.10;;;0.82;;
9005;SDS011;62284;50.702;7.140;2022-09-27T11:24:35;1.30;;;1.20;;
9005;SDS011;62284;50.702;7.140;2022-09-27T11:27:15;0.77;;;0.77;;
9005;SDS011;62284;50.702;7.140;2022-09-27T11:29:50;1.40;;;0.90;;
9005;SDS011;62284;50.702;7.140;2022-09-27T11:32:28;1.23;;;1.13;;
9005;SDS011;62284;50.702;7.140;2022-09-27T11:35:14;1.08;;;0.95;;
9005;SDS011;62284;50.702;7.140;2022-09-27T11:37:56;1.17;;;1.08;;
9005;SDS011;62284;50.702;7.140;2022-09-27T11:40:34;1.55;;;1.30;;
9005;SDS011;62284;50.702;7.140;2022-09-27T11:43:12;1.10;;;1.10;;
9005;SDS011;62284;50.702;7.140;2022-09-27T11:46:00;1.60;;;1.02;;
9005;SDS011;62284;50.702;7.140;2022-09-27T11:51:35;1.60;;;1.35;;
9005;SDS011;62284;50.702;7.140;2022-09-27T11:54:29;2.72;;;1.40;;
9005;SDS011;62284;50.702;7.140;2022-09-27T11:57:15;2.13;;;1.20;;
9005;SDS011;62284;50.702;7.140;2022-09-27T12:02:55;1.38;;;1.30;;
9005;SDS011;62284;50.702;7.140;2022-09-27T12:05:58;1.15;;;1.10;;
9005;SDS011;62284;50.702;7.140;2022-09-27T12:08:32;2.40;;;1.20;;
9005;SDS011;62284;50.702;7.140;2022-09-27T12:11:10;1.90;;;1.40;;
9005;SDS011;62284;50.702;7.140;2022-09-27T12:13:44;2.47;;;1.27;;
9005;SDS011;62284;50.702;7.140;2022-09-27T12:16:15;2.22;;;1.25;;
9005;SDS011;62284;50.702;7.140;2022-09-27T12:18:42;1.27;;;1.15;;
9005;SDS011;62284;50.702;7.140;2022-09-27T12:21:11;1.88;;;1.33;;
9005;SDS011;62284;50.702;7.140;2022-09-27T12:23:39;1.70;;;1.13;;
9005;SDS011;62284;50.702;7.140;2022-09-27T12:26:09;1.60;;;1.30;;
9005;SDS011;62284;50.702;7.140;2022-09-27T12:28:41;0.88;;;0.88;;
9005;SDS011;62284;50.702;7.140;2022-09-27T12:31:16;1.27;;;1.20;;
9005;SDS011;62284;50.702;7.140;2022-09-27T12:33:48;0.95;;;0.95;;
9005;SDS011;62284;50.702;7.140;2022-09-27T12:36:23;1.77;;;1.17;;
9005;SDS011;62284;50.702;7.140;2022-09-27T12:39:00;1.15;;;1.02;;
9005;SDS011;62284;50.702;7.140;2022-09-27T12:41:33;1.42;;;1.20;;
9005;SDS011;62284;50.702;7.140;2022-09-27T12:44:06;1.38;;;1.23;;
9005;SDS011;62284;50.702;7.140;2022-09-27T12:46:38;1.05;;;0.77;;
9005;SDS011;62284;50.702;7.140;2022-09-27T12:49:14;1.73;;;1.38;;
9005;SDS011;62284;50.702;7.140;2022-09-27T12:51:50;3.13;;;1.40;;
9005;SDS011;62284;50.702;7.140;2022-09-27T12:54:28;2.72;;;1.48;;
9005;SDS011;62284;50.702;7.140;2022-09-27T12:57:12;1.60;;;1.50;;
9005;SDS011;62284;50.702;7.140;2022-09-27T12:59:54;1.35;;;1.25;;
9005;SDS011;62284;50.702;7.140;2022-09-27T13:09:06;2.22;;;1.38;;
9005;SDS011;62284;50.702;7.140;2022-09-27T13:11:56;1.85;;;1.52;;
9005;SDS011;62284;50.702;7.140;2022-09-27T13:14:33;1.10;;;1.00;;
9005;SDS011;62284;50.702;7.140;2022-09-27T13:17:07;1.50;;;1.40;;
9005;SDS011;62284;50.702;7.140;2022-09-27T13:26:46;1.38;;;1.10;;
9005;SDS011;62284;50.702;7.140;2022-09-27T13:29:25;1.75;;;1.13;;
9005;SDS011;62284;50.702;7.140;2022-09-27T13:32:01;1.05;;;0.95;;
9005;SDS011;62284;50.702;7.140;2022-09-27T13:34:48;1.17;;;1.05;;
9005;SDS011;62284;50.702;7.140;2022-09-27T13:37:21;1.15;;;1.15;;
9005;SDS011;62284;50.702;7.140;2022-09-27T13:40:15;1.33;;;1.17;;
9005;SDS011;62284;50.702;7.140;2022-09-27T13:42:54;1.08;;;1.08;;
9005;SDS011;62284;50.702;7.140;2022-09-27T13:45:48;1.15;;;1.00;;
9005;SDS011;62284;50.702;7.140;2022-09-27T13:48:20;2.17;;;1.80;;
9005;SDS011;62284;50.702;7.140;2022-09-27T13:50:54;1.33;;;1.25;;
9005;SDS011;62284;50.702;7.140;2022-09-27T13:53:27;1.23;;;1.23;;
9005;SDS011;62284;50.702;7.140;2022-09-27T13:55:58;1.65;;;1.55;;
9005;SDS011;62284;50.702;7.140;2022-09-27T13:58:29;1.80;;;1.60;;
9005;SDS011;62284;50.702;7.140;2022-09-27T14:01:02;1.02;;;1.02;;
9005;SDS011;62284;50.702;7.140;2022-09-27T14:03:53;1.65;;;1.55;;
9005;SDS011;62284;50.702;7.140;2022-09-27T14:06:27;1.98;;;1.70;;
9005;SDS011;62284;50.702;7.140;2022-09-27T14:09:00;1.70;;;1.60;;
9005;SDS011;62284;50.702;7.140;2022-09-27T14:11:32;1.42;;;1.35;;
9005;SDS011;62284;50.702;7.140;2022-09-27T14:14:01;1.42;;;1.33;;
9005;SDS011;62284;50.702;7.140;2022-09-27T14:16:32;0.73;;;0.73;;
9005;SDS011;62284;50.702;7.140;2022-09-27T14:19:01;0.73;;;0.70;;
9005;SDS011;62284;50.702;7.140;2022-09-27T14:21:31;0.65;;;0.65;;
9005;SDS011;62284;50.702;7.140;2022-09-27T14:27:11;1.13;;;0.88;;
9005;SDS011;62284;50.702;7.140;2022-09-27T14:29:42;0.90;;;0.90;;
9005;SDS011;62284;50.702;7.140;2022-09-27T14:32:12;0.82;;;0.70;;
9005;SDS011;62284;50.702;7.140;2022-09-27T14:34:41;0.57;;;0.57;;
9005;SDS011;62284;50.702;7.140;2022-09-27T14:37:20;1.58;;;0.93;;
9005;SDS011;62284;50.702;7.140;2022-09-27T14:39:54;1.23;;;1.08;;
9005;SDS011;62284;50.702;7.140;2022-09-27T14:42:24;1.33;;;1.00;;
9005;SDS011;62284;50.702;7.140;2022-09-27T14:44:53;0.80;;;0.60;;
9005;SDS011;62284;50.702;7.140;2022-09-27T14:47:23;1.45;;;0.90;;
9005;SDS011;62284;50.702;7.140;2022-09-27T14:49:52;1.25;;;0.93;;
9005;SDS011;62284;50.702;7.140;2022-09-27T14:52:22;1.00;;;0.75;;
9005;SDS011;62284;50.702;7.140;2022-09-27T14:54:56;1.63;;;0.82;;
9005;SDS011;62284;50.702;7.140;2022-09-27T14:57:27;2.50;;;0.95;;
9005;SDS011;62284;50.702;7.140;2022-09-27T14:59:58;0.88;;;0.88;;
9005;SDS011;62284;50.702;7.140;2022-09-27T15:02:28;0.90;;;0.55;;
9005;SDS011;62284;50.702;7.140;2022-09-27T15:04:57;1.40;;;0.90;;
9005;SDS011;62284;50.702;7.140;2022-09-27T15:07:26;0.90;;;0.90;;
9005;SDS011;62284;50.702;7.140;2022-09-27T15:09:53;1.67;;;0.98;;
9005;SDS011;62284;50.702;7.140;2022-09-27T15:12:23;1.48;;;1.08;;
9005;SDS011;62284;50.702;7.140;2022-09-27T15:14:52;1.95;;;1.52;;
9005;SDS011;62284;50.702;7.140;2022-09-27T15:17:22;2.72;;;1.50;;
9005;SDS011;62284;50.702;7.140;2022-09-27T15:19:59;1.90;;;1.13;;
9005;SDS011;62284;50.702;7.140;2022-09-27T15:22:35;1.27;;;1.17;;
9005;SDS011;62284;50.702;7.140;2022-09-27T15:25:16;1.20;;;1.10;;
9005;SDS011;62284;50.702;7.140;2022-09-27T15:27:46;1.30;;;1.02;;
9005;SDS011;62284;50.702;7.140;2022-09-27T15:30:16;3.38;;;1.85;;
9005;SDS011;62284;50.702;7.140;2022-09-27T15:32:47;1.73;;;1.30;;
9005;SDS011;62284;50.702;7.140;2022-09-27T15:35:18;1.80;;;1.10;;
9005;SDS011;62284;50.702;7.140;2022-09-27T15:37:50;1.33;;;1.23;;
9005;SDS011;62284;50.702;7.140;2022-09-27T15:43:21;1.33;;;1.23;;
9005;SDS011;62284;50.702;7.140;2022-09-27T15:45:54;4.30;;;1.60;;
9005;SDS011;62284;50.702;7.140;2022-09-27T15:48:25;1.42;;;1.13;;
9005;SDS011;62284;50.702;7.140;2022-09-27T15:50:52;1.45;;;1.02;;
9005;SDS011;62284;50.702;7.140;2022-09-27T15:56:03;0.82;;;0.73;;
9005;SDS011;62284;50.702;7.140;2022-09-27T15:58:31;0.90;;;0.90;;
9005;SDS011;62284;50.702;7.140;2022-09-27T16:01:01;1.10;;;1.00;;
9005;SDS011;62284;50.702;7.140;2022-09-27T16:03:30;1.92;;;1.25;;